createdAt,value
2022-12-03T00:50:34.425Z,4.28
2022-12-03T00:53:04.146Z,3.90
2022-12-03T00:55:33.653Z,3.80
2022-12-03T00:58:03.097Z,3.98
2022-12-03T01:00:33.995Z,4.03
2022-12-03T01:03:03.627Z,3.70
2022-12-03T01:05:32.908Z,3.55
2022-12-03T01:08:02.542Z,3.83
2022-12-03T01:10:33.687Z,3.77
2022-12-03T01:13:04.500Z,3.70
2022-12-03T01:15:33.488Z,3.45
2022-12-03T01:18:02.625Z,2.87
2022-12-03T01:20:32.080Z,3.77
2022-12-03T01:23:03.054Z,3.33
2022-12-03T01:25:32.318Z,3.12
2022-12-03T01:28:01.302Z,4.00
2022-12-03T01:30:33.521Z,3.25
2022-12-03T01:33:02.666Z,3.52
2022-12-03T01:35:34.334Z,3.40
2022-12-03T01:38:03.481Z,3.33
2022-12-03T01:40:34.117Z,3.40
2022-12-03T01:43:03.446Z,3.02
2022-12-03T01:45:32.817Z,3.02
2022-12-03T01:48:02.363Z,3.13
2022-12-03T01:50:32.202Z,3.08
2022-12-03T01:53:03.240Z,2.60
2022-12-03T01:55:32.965Z,3.55
2022-12-03T01:58:02.647Z,3.30
2022-12-03T02:00:32.359Z,3.20
2022-12-03T02:03:06.912Z,3.20
2022-12-03T02:05:37.179Z,3.22
2022-12-03T02:08:32.573Z,3.15
2022-12-03T02:13:44.551Z,3.40
2022-12-03T02:16:16.549Z,3.27
2022-12-03T02:18:45.735Z,3.70
2022-12-03T02:21:32.869Z,3.33
2022-12-03T02:24:44.414Z,3.55
2022-12-03T02:27:13.774Z,3.77
2022-12-03T02:29:42.953Z,3.70
2022-12-03T02:32:12.226Z,3.40
2022-12-03T02:34:45.830Z,3.12
2022-12-03T02:37:20.020Z,3.50
2022-12-03T02:39:56.881Z,3.05
2022-12-03T02:42:35.492Z,3.37
2022-12-03T02:45:30.762Z,3.77
2022-12-03T02:48:13.353Z,3.35
2022-12-03T02:50:46.730Z,3.55
2022-12-03T02:53:21.145Z,3.42
2022-12-03T02:55:50.895Z,3.67
2022-12-03T02:58:20.018Z,3.20
2022-12-03T03:00:49.926Z,3.52
2022-12-03T03:03:19.445Z,3.40
2022-12-03T03:05:48.622Z,3.30
2022-12-03T03:08:17.851Z,3.52
2022-12-03T03:10:49.475Z,3.70
2022-12-03T03:13:19.458Z,3.17
2022-12-03T03:15:48.777Z,3.27
2022-12-03T03:18:18.494Z,3.52
2022-12-03T03:20:48.228Z,3.37
2022-12-03T03:23:23.240Z,2.92
2022-12-03T03:26:10.975Z,3.75
2022-12-03T03:31:13.254Z,3.42
2022-12-03T03:33:43.300Z,3.10
2022-12-03T03:36:12.918Z,3.08
2022-12-03T03:38:42.765Z,3.22
2022-12-03T03:41:13.532Z,3.37
2022-12-03T03:43:43.153Z,3.15
2022-12-03T03:46:12.729Z,3.20
2022-12-03T03:48:43.220Z,3.17
2022-12-03T03:51:12.494Z,3.55
2022-12-03T03:53:45.488Z,3.33
2022-12-03T03:56:16.583Z,3.02
2022-12-03T03:58:45.798Z,3.55
2022-12-03T04:01:15.288Z,3.40
2022-12-03T04:03:45.096Z,3.58
2022-12-03T04:06:14.824Z,3.60
2022-12-03T04:08:46.196Z,3.50
2022-12-03T04:11:34.004Z,3.47
2022-12-03T04:14:03.340Z,3.55
2022-12-03T04:16:32.611Z,3.60
2022-12-03T04:19:01.763Z,3.70
2022-12-03T04:21:49.613Z,3.85
2022-12-03T04:24:19.349Z,3.77
2022-12-03T04:27:06.988Z,3.70
2022-12-03T04:29:36.272Z,3.62
2022-12-03T04:32:24.897Z,4.35
2022-12-03T04:35:12.295Z,4.12
2022-12-03T04:40:13.317Z,4.53
2022-12-03T04:42:42.522Z,3.87
2022-12-03T04:45:12.328Z,4.65
2022-12-03T04:47:42.164Z,3.70
2022-12-03T04:50:12.241Z,3.80
2022-12-03T04:52:40.984Z,4.40
2022-12-03T04:55:10.397Z,4.00
2022-12-03T04:57:39.598Z,3.60
2022-12-03T05:00:12.405Z,3.40
2022-12-03T05:02:42.107Z,4.03
2022-12-03T05:05:11.352Z,3.42
2022-12-03T05:07:40.543Z,3.22
2022-12-03T05:10:11.000Z,3.65
2022-12-03T05:12:40.521Z,3.05
2022-12-03T05:15:10.916Z,3.15
2022-12-03T05:17:40.544Z,3.45
2022-12-03T05:20:29.811Z,3.33
2022-12-03T05:22:59.381Z,3.17
2022-12-03T05:25:28.979Z,3.20
2022-12-03T05:27:57.746Z,3.60
2022-12-03T05:30:27.259Z,2.87
2022-12-03T05:32:56.620Z,3.20
2022-12-03T05:35:26.033Z,3.05
2022-12-03T05:37:55.720Z,3.85
2022-12-03T05:40:25.451Z,3.40
2022-12-03T05:42:54.307Z,3.27
2022-12-03T05:45:35.439Z,3.70
2022-12-03T05:48:05.892Z,3.70
2022-12-03T05:50:37.397Z,3.77
2022-12-03T05:53:19.628Z,3.33
2022-12-03T05:55:50.857Z,3.87
2022-12-03T05:58:20.306Z,3.60
2022-12-03T06:00:50.098Z,3.87
2022-12-03T06:03:21.317Z,3.72
2022-12-03T06:05:50.559Z,3.95
2022-12-03T06:08:20.119Z,3.33
2022-12-03T06:10:49.071Z,4.00
2022-12-03T06:13:18.659Z,3.62
2022-12-03T06:15:48.561Z,3.83
2022-12-03T06:18:17.829Z,3.40
2022-12-03T06:20:47.133Z,3.72
2022-12-03T06:23:16.435Z,3.98
2022-12-03T06:25:45.977Z,5.12
2022-12-03T06:28:15.517Z,4.30
2022-12-03T06:30:46.419Z,4.47
2022-12-03T06:33:17.622Z,4.50
2022-12-03T06:35:46.778Z,5.53
2022-12-03T06:38:16.249Z,4.90
2022-12-03T06:40:45.804Z,4.55
2022-12-03T06:43:14.943Z,7.45
2022-12-03T06:45:47.727Z,5.75
2022-12-03T06:48:15.782Z,5.35
2022-12-03T06:50:44.585Z,5.28
2022-12-03T06:53:13.852Z,4.87
2022-12-03T06:55:43.742Z,4.75
2022-12-03T06:58:13.354Z,5.90
2022-12-03T07:00:43.017Z,5.80
2022-12-03T07:03:12.865Z,5.22
2022-12-03T07:05:43.583Z,5.67
2022-12-03T07:08:13.043Z,6.00
2022-12-03T07:10:42.808Z,6.60
2022-12-03T07:13:11.937Z,7.10
2022-12-03T07:15:41.878Z,6.35
2022-12-03T07:18:12.606Z,6.20
2022-12-03T07:20:41.576Z,5.83
2022-12-03T07:23:11.031Z,5.00
2022-12-03T07:25:41.809Z,5.55
2022-12-03T07:28:11.323Z,6.45
2022-12-03T07:30:41.196Z,5.45
2022-12-03T07:33:11.472Z,5.75
2022-12-03T07:35:41.394Z,5.90
2022-12-03T07:38:10.477Z,5.70
2022-12-03T07:40:40.083Z,5.67
2022-12-03T07:43:09.880Z,5.80
2022-12-03T07:45:38.901Z,5.42
2022-12-03T07:48:07.843Z,5.58
2022-12-03T07:50:37.102Z,5.28
2022-12-03T07:53:06.513Z,5.03
2022-12-03T07:55:35.678Z,5.62
2022-12-03T07:58:05.504Z,5.72
2022-12-03T08:00:35.022Z,6.58
2022-12-03T08:03:04.426Z,5.22
2022-12-03T08:05:33.503Z,5.80
2022-12-03T08:08:03.200Z,6.10
2022-12-03T08:10:32.517Z,5.42
2022-12-03T08:13:01.657Z,5.67
2022-12-03T08:15:38.502Z,6.42
2022-12-03T08:18:07.279Z,6.08
2022-12-03T08:20:39.218Z,6.67
2022-12-03T08:23:16.493Z,6.65
2022-12-03T08:25:46.118Z,5.62
2022-12-03T08:28:22.076Z,6.00
2022-12-03T08:31:12.277Z,5.85
2022-12-03T08:33:42.011Z,6.40
2022-12-03T08:36:29.421Z,5.97
2022-12-03T08:39:27.356Z,5.72
2022-12-03T08:42:35.233Z,6.17
2022-12-03T08:45:32.560Z,6.30
2022-12-03T10:20:21.590Z,5.27
2022-12-03T10:22:52.370Z,7.78
2022-12-03T10:25:22.685Z,8.23
2022-12-03T10:28:01.971Z,7.50
2022-12-03T10:30:32.771Z,7.05
2022-12-03T10:33:02.705Z,7.53
2022-12-03T10:35:43.591Z,7.58
2022-12-03T10:38:22.163Z,7.10
2022-12-03T10:40:50.915Z,6.83
2022-12-03T10:43:26.943Z,6.22
2022-12-03T10:46:13.266Z,6.45
2022-12-03T10:48:42.127Z,6.55
2022-12-03T10:51:21.119Z,5.70
2022-12-03T10:53:51.048Z,6.55
2022-12-03T10:56:24.798Z,5.97
2022-12-03T10:58:53.363Z,6.15
2022-12-03T11:01:25.183Z,6.25
2022-12-03T11:03:54.584Z,6.00
2022-12-03T11:06:24.023Z,6.58
2022-12-03T11:08:58.514Z,6.80
2022-12-03T11:11:30.188Z,8.33
2022-12-03T11:14:05.950Z,6.45
2022-12-03T11:16:48.884Z,6.35
2022-12-03T11:19:27.292Z,5.67
2022-12-03T11:22:11.458Z,5.58
2022-12-03T11:24:42.368Z,5.72
2022-12-03T11:27:18.537Z,6.35
2022-12-03T11:30:01.516Z,4.62
2022-12-03T11:32:49.739Z,6.22
2022-12-03T11:35:29.093Z,4.65
2022-12-03T11:38:20.278Z,6.05
2022-12-03T11:41:15.116Z,5.22
2022-12-03T11:43:58.027Z,4.80
2022-12-03T11:46:44.609Z,6.03
2022-12-03T11:49:34.651Z,5.07
2022-12-03T11:52:20.829Z,4.80
2022-12-03T11:54:59.496Z,5.40
2022-12-03T11:57:34.317Z,5.58
2022-12-03T12:00:23.209Z,5.62
2022-12-03T12:02:54.706Z,5.17
2022-12-03T12:05:32.179Z,4.95
2022-12-03T12:08:02.333Z,4.42
2022-12-03T12:10:45.432Z,5.15
2022-12-03T12:13:37.762Z,5.08
2022-12-03T12:16:08.531Z,5.20
2022-12-03T12:18:54.888Z,5.00
2022-12-03T12:21:46.637Z,5.85
2022-12-03T12:24:44.162Z,5.00
2022-12-03T12:27:22.387Z,5.12
2022-12-03T12:29:59.362Z,6.10
2022-12-03T12:32:32.236Z,5.40
2022-12-03T12:35:13.773Z,6.10
2022-12-03T12:38:11.479Z,4.97
2022-12-03T12:40:45.274Z,4.80
2022-12-03T12:43:34.199Z,5.03
2022-12-03T12:46:39.045Z,4.95
2022-12-03T12:48:42.910Z,5.42
2022-12-03T12:51:16.775Z,6.25
2022-12-03T12:53:46.294Z,7.12
2022-12-03T12:56:31.044Z,5.65
2022-12-03T12:59:16.271Z,5.17
2022-12-03T13:01:49.283Z,5.05
2022-12-03T13:04:21.847Z,4.92
2022-12-03T13:06:53.270Z,6.10
2022-12-03T13:09:24.927Z,5.40
2022-12-03T13:12:03.494Z,4.87
2022-12-03T13:14:36.565Z,5.70
2022-12-03T13:17:23.798Z,4.50
2022-12-03T13:20:03.622Z,4.67
2022-12-03T13:22:25.802Z,5.10
2022-12-03T13:24:59.416Z,4.75
2022-12-03T13:27:35.797Z,4.87
2022-12-03T13:30:11.720Z,4.85
2022-12-03T13:32:42.328Z,3.43
2022-12-03T13:35:22.310Z,4.40
2022-12-03T13:37:52.030Z,4.53
2022-12-03T13:40:30.731Z,5.17
2022-12-03T13:43:00.557Z,5.25
2022-12-03T13:45:39.235Z,4.92
2022-12-03T13:48:24.065Z,4.83
2022-12-03T13:50:54.386Z,5.20
2022-12-03T13:56:52.872Z,4.97
2022-12-03T13:59:26.148Z,4.90
2022-12-03T14:01:53.850Z,5.87
2022-12-03T14:04:23.274Z,5.65
2022-12-03T14:06:53.253Z,5.58
2022-12-03T14:09:23.392Z,6.70
2022-12-03T14:12:11.005Z,5.85
2022-12-03T14:14:45.934Z,5.75
2022-12-03T14:17:16.269Z,6.33
2022-12-03T14:19:49.926Z,5.17
2022-12-03T14:22:23.043Z,5.60
2022-12-03T14:24:52.920Z,5.45
2022-12-03T14:27:22.458Z,5.37
2022-12-03T14:29:52.625Z,5.45
2022-12-03T14:32:37.122Z,6.45
2022-12-03T14:35:13.360Z,5.95
2022-12-03T14:37:45.560Z,5.53
2022-12-03T14:40:21.017Z,5.90
2022-12-03T14:42:58.478Z,6.20
2022-12-03T14:45:38.072Z,5.85
2022-12-03T14:48:10.694Z,5.50
2022-12-03T14:50:40.250Z,5.60
2022-12-03T14:53:25.632Z,5.10
2022-12-03T14:56:04.448Z,5.45
2022-12-03T14:58:39.143Z,5.70
2022-12-03T15:01:09.118Z,6.35
2022-12-03T15:03:39.727Z,5.92
2022-12-03T15:06:09.338Z,5.25
2022-12-03T15:08:44.510Z,5.12
2022-12-03T15:11:14.279Z,5.53
2022-12-03T15:16:53.125Z,6.35
2022-12-03T15:19:22.621Z,5.62
2022-12-03T15:21:51.927Z,5.75
2022-12-03T15:24:25.014Z,5.15
2022-12-03T15:26:56.024Z,5.90
2022-12-03T15:29:26.014Z,5.03
2022-12-03T15:31:55.720Z,5.30
2022-12-03T15:37:29.244Z,6.03
2022-12-03T15:40:00.042Z,5.90
2022-12-03T15:42:29.859Z,6.40
2022-12-03T15:44:58.881Z,5.90
2022-12-03T15:47:28.745Z,5.92
2022-12-03T15:49:57.969Z,5.47
2022-12-03T15:52:27.480Z,4.95
2022-12-03T15:54:57.359Z,5.53
2022-12-03T15:57:29.585Z,5.62
2022-12-03T16:00:01.263Z,4.62
2022-12-03T16:02:52.250Z,6.28
2022-12-03T16:05:22.417Z,4.65
2022-12-03T21:02:29.784Z,5.03
2022-12-03T21:05:00.488Z,4.58
2022-12-03T21:07:30.940Z,4.70
2022-12-03T21:10:01.440Z,4.92
2022-12-03T21:12:30.694Z,5.22
2022-12-03T21:14:59.698Z,4.78
2022-12-03T21:17:30.230Z,4.95
2022-12-03T21:19:59.728Z,5.30
2022-12-03T21:22:30.555Z,5.53
2022-12-03T21:25:00.414Z,5.28
2022-12-03T21:27:30.950Z,5.15
2022-12-03T21:30:00.644Z,4.67
2022-12-03T21:32:31.002Z,5.37
2022-12-03T21:35:01.610Z,4.58
2022-12-03T21:37:31.689Z,4.75
2022-12-03T21:40:01.337Z,4.40
2022-12-03T21:42:35.525Z,4.72
2022-12-03T21:45:02.082Z,5.60
2022-12-03T21:47:36.968Z,4.83
2022-12-03T21:50:04.286Z,5.12
2022-12-03T21:52:34.896Z,5.28
2022-12-03T21:55:04.823Z,5.37
2022-12-03T21:57:37.511Z,4.17
2022-12-03T22:00:08.726Z,5.15
2022-12-03T22:02:41.879Z,4.92
2022-12-03T22:05:12.566Z,4.75
2022-12-03T22:07:42.491Z,5.00
2022-12-03T22:10:12.926Z,4.40
2022-12-03T22:12:45.294Z,5.30
2022-12-03T22:15:18.726Z,5.15
2022-12-03T22:17:45.739Z,5.28
2022-12-03T22:20:16.005Z,5.15
2022-12-03T22:22:50.219Z,5.58
2022-12-03T22:25:19.469Z,4.53
2022-12-03T22:27:48.753Z,5.00
2022-12-03T22:30:18.578Z,5.08
2022-12-03T22:32:47.928Z,4.92
2022-12-03T22:35:19.109Z,4.97
2022-12-03T22:37:48.586Z,5.42
2022-12-03T22:40:18.392Z,5.67
2022-12-03T22:42:50.940Z,5.85
2022-12-03T22:45:18.768Z,4.83
2022-12-03T22:47:48.138Z,5.45
2022-12-03T22:50:20.980Z,5.67
2022-12-03T22:52:52.202Z,4.90
2022-12-03T22:55:22.632Z,5.35
2022-12-03T22:57:52.129Z,5.58
2022-12-03T23:00:32.304Z,5.60
2022-12-03T23:03:02.477Z,5.05
2022-12-03T23:05:38.919Z,5.78
2022-12-03T23:08:13.477Z,5.87
2022-12-03T23:10:44.804Z,5.50
2022-12-03T23:13:14.614Z,5.58
2022-12-03T23:15:50.724Z,5.62
2022-12-03T23:18:20.087Z,5.97
2022-12-03T23:20:51.880Z,5.30
2022-12-03T23:23:22.592Z,5.67
2022-12-03T23:26:03.522Z,5.90
2022-12-03T23:28:35.976Z,5.12
2022-12-03T23:31:06.690Z,5.60
2022-12-03T23:33:38.676Z,5.35
2022-12-03T23:36:10.028Z,6.25
2022-12-03T23:38:39.568Z,6.20
2022-12-03T23:41:12.467Z,5.45
2022-12-03T23:43:41.813Z,5.42
2022-12-03T23:46:15.007Z,5.33
2022-12-03T23:48:45.182Z,5.67
2022-12-03T23:51:21.596Z,6.10
2022-12-03T23:53:54.462Z,5.33
2022-12-03T23:56:27.277Z,5.90
2022-12-03T23:58:56.957Z,5.33
